Tiempo atmosférico en la estación meteorológica de Zumaia, Gipuzkoa (28 m.)



Fecha
DESCASC
Temp. máxima en grados centígrados (hora)
DESCASC
Temp. mínima en grados centígrados (hora)
DESCASC
Temp. media en grados centígrados
DESCASC
Racha de viento máxima en m/sg (hora)
DESCASC
Velocidad máxima media en intervalos de 10 minutos(hora)
DESCASC
Precipitaciones diarias en mm
DESCASC
Precipitaciones de 00:00 a 06:00 en mm
DESCASC
Precipitaciones de 06:00 a 12:00 en mm
DESCASC
Precipitaciones de 12:00 a 18:00 en mm
DESCASC
Precipitaciones de 18:00 a 24:00 en mm
DESCASC
06-07-2020 20.4 (00:10) 17.6 (22:30) 19 11.11 (12:30) 8.06 (11:10) 5.2 1.4 3.8 0 0
05-07-2020 25.8 (17:10) 13.7 (06:40) 19.7 5.56 (23:00) 4.44 (23:00) 0 0 0 0 0
04-07-2020 23.8 (19:00) 12.5 (06:50) 18.1 6.94 (15:40) 5 (15:20) 0 0 0 0 0
03-07-2020 22.7 (19:10) 14.9 (07:30) 18.8 8.89 (10:40) 5.28 (10:40) 0.9 0.9 0 0 0
02-07-2020 18.2 (14:20) 15.8 (00:00) 17 12.5 (18:40) 8.89 (14:40) 12.3 2.9 3.7 0.9 4.8
01-07-2020 25.1 (16:20) 18.1 (00:00) 21.6 11.94 (23:40) 8.33 (23:50) 5 0.1 0.5 0 4.4
30-06-2020 24.6 (18:00) 14.4 (00:00) 19.5 6.39 (12:50) 5 (12:50) 0 0 0 0 0
29-06-2020 23.5 (19:40) 17 (00:00) 20.3 10.83 (03:20) 7.22 (03:20) 0.5 0.3 0.2 0 0
28-06-2020 25.8 (19:10) 18 (00:00) 21.9 8.06 (16:20) 6.11 (00:10) 1.5 1 0.4 0.1 0
27-06-2020 25.5 (16:40) 15.8 (00:00) 20.7 10.28 (23:10) 7.78 (23:20) 0.2 0 0.2 0 0
26-06-2020 20.4 (15:00) 17.4 (00:00) 18.9 7.5 (01:40) 4.44 (23:20) 0.7 0 0.6 0.1 0
25-06-2020 24.4 (13:30) 18.5 (00:00) 21.4 11.94 (15:10) 8.33 (15:10) 1 0 0 0.3 0.7
24-06-2020 24 (13:50) 19 (00:00) 21.5 10.28 (19:30) 6.67 (19:30) 0 0 0 0 0
23-06-2020 26.1 (19:10) 15.1 (00:00) 20.6 6.11 (17:50) 3.61 (12:30) 0 0 0 0 0
22-06-2020 22.6 (17:40) 16.5 (00:00) 19.6 7.22 (15:30) 5.83 (15:30) 0 0 0 0 0
21-06-2020 24.1 (15:30) 13.9 (00:00) 19 6.11 (16:20) 5 (16:20) 0 0 0 0 0
20-06-2020 22.2 (18:30) 13.3 (00:00) 17.8 6.67 (14:10) 5.28 (14:20) 0 0 0 0 0
19-06-2020 21.9 (16:20) 12.7 (00:00) 17.3 5.28 (14:40) 3.61 (14:30) 0 0 0 0 0
18-06-2020 21.5 (18:00) 13.9 (00:00) 17.7 6.94 (14:10) 5.28 (13:30) 2.4 2.3 0.1 0 0
17-06-2020 21.6 (11:50) 14.5 (00:00) 18.1 11.67 (10:30) 6.94 (13:00) 0.7 0 0.1 0.6 0
16-06-2020 20.9 (11:30) 14.8 (00:00) 17.8 13.06 (18:10) 9.72 (18:30) 1.1 0 0 0.6 0.5
15-06-2020 23.5 (15:20) 14.3 (00:00) 18.9 8.89 (23:10) 5.28 (23:20) 0 0 0 0 0
14-06-2020 22.9 (17:10) 12.9 (00:00) 17.9 5.83 (12:00) 4.44 (12:30) 0 0 0 0 0
13-06-2020 21.5 (14:00) 12.3 (00:00) 16.9 6.67 (00:50) 4.72 (19:10) 0.6 0 0.4 0.2 0
12-06-2020 21.3 (12:40) 10.4 (00:00) 15.8 17.5 (07:00) 11.67 (18:10) 1.6 0.1 0 0.3 1.2
11-06-2020 21.1 (13:30) 11.5 (00:00) 16.3 20 (13:40) 13.06 (13:50) 16 0.1 0.1 11.2 4.6

Gráficas

Temp. máximas Temp. mínimas Temp. medias Precipitaciones Rachas de viento máximas Velocidades máximas media en intervalos de 10 minutos

Datos horarios

Fecha y hora oficial Temperatura (ºC) Velocidad del viento (km/h) Dirección del viento Racha (km/h) Dirección de racha Precipitación (mm) Presión (hPa) Tendencia (hPa) Humedad (%)
2020-07-10 23:00:00 19.8 15 Noroeste 24 Noroeste 0 -- -- 78
2020-07-10 22:00:00 19.8 17 Noroeste 24 Noroeste 0 -- -- 81
2020-07-10 21:00:00 20 12 Norte 20 Norte 0 -- -- 84
2020-07-10 20:00:00 20.2 8 Norte 19 Norte 0 -- -- 84
2020-07-10 19:00:00 20.2 10 Norte 22 Norte 0 -- -- 83
2020-07-10 18:00:00 20.3 13 Norte 27 Noroeste 0 -- -- 83
2020-07-10 17:00:00 20.5 24 Noroeste 31 Noroeste 0 -- -- 81
2020-07-10 16:00:00 22.3 17 Noroeste 25 Noroeste 0 -- -- 72
2020-07-10 15:00:00 21.9 5 Noroeste 9 Noroeste 0 -- -- 74
2020-07-10 14:00:00 20.8 0 Calma 23 Noroeste 0 -- -- 84
2020-07-10 13:00:00 20.6 9 Norte 20 Noroeste 0 -- -- 77
2020-07-10 12:00:00 20.7 13 Norte 20 Noroeste 0 -- -- 77
2020-07-10 11:00:00 21 12 Noroeste 24 Noroeste 0 -- -- 81
2020-07-10 10:00:00 19.7 21 Noroeste 27 Noroeste 0 -- -- 91
2020-07-10 09:00:00 19 15 Noroeste 19 Noroeste 0.1 -- -- 94
2020-07-10 08:00:00 18.2 5 Sur 11 Sur 0 -- -- 94
2020-07-10 07:00:00 17.9 8 Sur 13 Sur 0 -- -- 94
2020-07-10 06:00:00 17.9 8 Sur 12 Sur 0 -- -- 94
2020-07-10 05:00:00 18.3 6 Sur 10 Sur 0 -- -- 91
2020-07-10 04:00:00 19.1 5 Sur 9 Oeste 0 -- -- 88
2020-07-10 03:00:00 20 8 Noroeste 18 Noroeste 0 -- -- 85
2020-07-10 02:00:00 20.2 8 Noroeste 18 Noroeste 0 -- -- 87
2020-07-10 01:00:00 20.5 11 Noroeste 19 Noroeste 0 -- -- 88
2020-07-10 00:00:00 20.7 15 Noroeste 22 Noroeste 0 -- -- 88
2020-07-09 23:00:00 21 16 Noroeste 25 Noroeste 0 -- -- 85
2020-07-09 22:00:00 21.1 15 Noroeste 27 Noroeste 0 -- -- 85
2020-07-09 21:00:00 21.5 18 Noroeste 27 Noroeste 0 -- -- 84
2020-07-09 20:00:00 22 15 Noroeste 23 Noroeste 0 -- -- 81
2020-07-09 19:00:00 22.9 14 Noroeste 22 Noroeste 0 -- -- 75
2020-07-09 18:00:00 25 13 Noroeste 21 Noroeste 0 -- -- 70
2020-07-09 17:00:00 25.8 13 Noroeste 22 Noroeste 0 -- -- 69
2020-07-09 16:00:00 25.4 12 Noroeste 23 Noroeste 0 -- -- 70
2020-07-09 15:00:00 25.1 15 Noroeste 24 Noroeste 0 -- -- 70
2020-07-09 14:00:00 24.9 16 Noroeste 29 Noroeste 0 -- -- 71
2020-07-09 13:00:00 25 18 Noroeste 27 Noroeste 0 -- -- 70
2020-07-09 12:00:00 25.2 15 Noroeste 23 Noroeste 0 -- -- 73
2020-07-09 11:00:00 23.5 9 Noroeste 17 Noroeste 0 -- -- 76
2020-07-09 10:00:00 21.6 2 Noroeste 11 Noroeste 0 -- -- 81
2020-07-09 09:00:00 18.9 7 Sudoeste 13 Sudoeste 0 -- -- 92
2020-07-09 08:00:00 17.7 10 Sur 14 Sudoeste 0 -- -- 92
2020-07-09 07:00:00 17.5 9 Sur 15 Sur 0 -- -- 92
2020-07-09 06:00:00 17.5 9 Sur 14 Sur 0 -- -- 91
2020-07-09 05:00:00 17.9 8 Sur 13 Sur 0 -- -- 91
2020-07-09 04:00:00 18.4 8 Sur 14 Sur 0 -- -- 90
2020-07-09 03:00:00 18.7 7 Sur 14 Sur 0 -- -- 88
2020-07-09 02:00:00 19.1 8 Sur 13 Sur 0 -- -- 87
2020-07-09 01:00:00 19.6 8 Sur 13 Noroeste 0 -- -- 83
2020-07-09 00:00:00 20.2 4 Sur 13 Sudoeste 0 -- -- 79
2020-07-08 23:00:00 21.5 6 Oeste 13 Noroeste 0 -- -- 73
2020-07-08 22:00:00 21.9 6 Noroeste 17 Noroeste 0 -- -- 71
2020-07-08 21:00:00 23.2 9 Noroeste 13 Noroeste 0 -- -- 68
2020-07-08 20:00:00 25.3 7 Noroeste 13 Noroeste 0 -- -- 64
2020-07-08 19:00:00 25.3 4 Noroeste 12 Noroeste 0 -- -- 62
2020-07-08 18:00:00 25.8 6 Noroeste 13 Noroeste 0 -- -- 64
2020-07-08 17:00:00 25.2 9 Noroeste 15 Noroeste 0 -- -- 68
2020-07-08 16:00:00 24.3 12 Noroeste 16 Noroeste 0 -- -- 72
2020-07-08 15:00:00 23.4 8 Norte 14 Nordeste 0 -- -- 71
2020-07-08 14:00:00 23.2 8 Norte 17 Nordeste 0 -- -- 70
2020-07-08 13:00:00 22.6 13 Nordeste 17 Norte 0 -- -- 70
2020-07-08 12:00:00 22.3 10 Nordeste 17 Norte 0 -- -- 74
2020-07-08 11:00:00 21.6 9 Nordeste 13 Norte 0 -- -- 78
2020-07-08 10:00:00 19.8 0 Calma 12 Sur 0 -- -- 87
2020-07-08 09:00:00 17.1 9 Sur 16 Sur 0 -- -- 94
2020-07-08 08:00:00 15.4 10 Sur 30 Sudeste 0 -- -- 94
2020-07-08 07:00:00 14.9 12 Sur 17 Sur 0 -- -- 94
2020-07-08 06:00:00 15 10 Sur 17 Sur 0 -- -- 94
2020-07-08 05:00:00 15.4 10 Sur 16 Sur 0 -- -- 94
2020-07-08 04:00:00 15.6 7 Sur 14 Sur 0 -- -- 94
2020-07-08 03:00:00 15.9 8 Sur 14 Sur 0 -- -- 93
2020-07-08 02:00:00 16.2 10 Sur 15 Sur 0 -- -- 91
2020-07-08 01:00:00 16.6 11 Sur 15 Sur 0 -- -- 89
2020-07-08 00:00:00 17.4 10 Sur 14 Sur 0 -- -- 85
2020-07-07 23:00:00 18.7 6 Sur 11 Sur 0 -- -- 75
2020-07-07 22:00:00 20.2 4 Sudeste 17 Nordeste 0 -- -- 67
2020-07-07 21:00:00 22.7 12 Nordeste 19 Nordeste 0 -- -- 59
2020-07-07 20:00:00 23.9 8 Nordeste 15 Nordeste 0 -- -- 61
2020-07-07 19:00:00 23.7 10 Nordeste 20 Nordeste 0 -- -- 63
2020-07-07 18:00:00 23.8 7 Nordeste 24 Nordeste 0 -- -- 63
2020-07-07 17:00:00 23.6 7 Norte 15 Nordeste 0 -- -- 62
2020-07-07 16:00:00 23.4 8 Norte 15 Nordeste 0 -- -- 65
2020-07-07 15:00:00 22.9 9 Norte 15 Norte 0 -- -- 66
2020-07-07 14:00:00 21.9 8 Noroeste 15 Noroeste 0 -- -- 67
2020-07-07 13:00:00 21.7 10 Noroeste 17 Norte 0 -- -- 63
2020-07-07 12:00:00 21.3 9 Noroeste 14 Noroeste 0 -- -- 65
2020-07-07 11:00:00 20 0 Calma 9 Noroeste 0 -- -- 68
2020-07-07 10:00:00 18.1 0 Calma 10 Sur 0 -- -- 87
2020-07-07 09:00:00 16 5 Sur 11 Sur 0 -- -- 93
2020-07-07 08:00:00 15.1 7 Sur 12 Sur 0 -- -- 93
2020-07-07 07:00:00 14.7 7 Sur 12 Sur 0 -- -- 92
2020-07-07 06:00:00 15.5 7 Sur 12 Sur 0 -- -- 91
2020-07-07 05:00:00 15.8 6 Sur 10 Sur 0 -- -- 91
2020-07-07 04:00:00 15.8 6 Sur 10 Sur 0 -- -- 90
2020-07-07 03:00:00 16.1 6 Sur 11 Sur 0 -- -- 88
2020-07-07 02:00:00 16.4 2 Sur 12 Sur 0 -- -- 85
2020-07-07 01:00:00 17.2 7 Sur 18 Norte 0 -- -- 77
2020-07-07 00:00:00 17.9 13 Norte 23 Norte 0 -- -- 68
2020-07-06 23:00:00 17.9 16 Norte 31 Norte 0 -- -- 70
2020-07-06 22:00:00 18 10 Norte 23 Norte 0 -- -- 71
2020-07-06 21:00:00 18.8 12 Norte 23 Norte 0 -- -- 74
2020-07-06 20:00:00 18.9 13 Norte 22 Norte 0 -- -- 75
2020-07-06 19:00:00 19 12 Norte 25 Norte 0 -- -- 74
2020-07-06 18:00:00 18.8 13 Norte 22 Norte 0 -- -- 75
2020-07-06 17:00:00 19 11 Norte 23 Norte 0 -- -- 76
2020-07-06 16:00:00 19 12 Norte 25 Norte 0 -- -- 78
2020-07-06 15:00:00 18.9 12 Nordeste 27 Norte 0 -- -- 78
2020-07-06 14:00:00 18.9 17 Norte 37 Norte 0 -- -- 80
2020-07-06 13:00:00 18.9 24 Norte 40 Norte 0 -- -- 84
2020-07-06 12:00:00 18.7 24 Norte 39 Norte 0.1 -- -- 93
2020-07-06 11:00:00 18.8 21 Nordeste 33 Nordeste 0 -- -- 98
2020-07-06 10:00:00 18.6 12 Norte 31 Noroeste 1.3 -- -- 98
2020-07-06 09:00:00 18.7 10 Norte 28 Noroeste 1.3 -- -- 98
2020-07-06 08:00:00 18.8 14 Norte 29 Norte 0.7 -- -- 98
2020-07-06 07:00:00 19 18 Norte 31 Norte 0.4 -- -- 98
2020-07-06 06:00:00 19 24 Noroeste 31 Noroeste 0.9 -- -- 97
2020-07-06 05:00:00 18.7 4 Sur 12 Sur 0.5 -- -- 94
2020-07-06 04:00:00 18.9 2 Oeste 11 Sudeste 0 -- -- 91
2020-07-06 03:00:00 19.1 5 Sur 13 Sur 0 -- -- 88
2020-07-06 02:00:00 19.4 5 Oeste 24 Noroeste 0 -- -- 87
2020-07-06 01:00:00 19.7 6 Sur 19 Oeste 0 -- -- 84
2020-07-06 00:00:00 20.3 10 Noroeste 19 Noroeste 0 -- -- 84
2020-07-05 23:00:00 20.6 16 Noroeste 20 Noroeste 0 -- -- 82
2020-07-05 22:00:00 21.1 6 Noroeste 12 Noroeste 0 -- -- 71
2020-07-05 21:00:00 24.3 9 Noroeste 13 Noroeste 0 -- -- 60
2020-07-05 20:00:00 24.8 10 Noroeste 14 Norte 0 -- -- 58
2020-07-05 19:00:00 25.4 6 Norte 12 Noroeste 0 -- -- 56
2020-07-05 18:00:00 25 6 Norte 12 Norte 0 -- -- 57
2020-07-05 17:00:00 25.2 6 Norte 13 Norte 0 -- -- 61
2020-07-05 16:00:00 24.8 7 Nordeste 15 Norte 0 -- -- 62
2020-07-05 15:00:00 23.8 10 Nordeste 15 Nordeste 0 -- -- 63
2020-07-05 14:00:00 23.3 11 Nordeste 15 Norte 0 -- -- 63
2020-07-05 13:00:00 23.4 9 Nordeste 18 Nordeste 0 -- -- 63
2020-07-05 12:00:00 22.8 12 Nordeste 17 Norte 0 -- -- 65
2020-07-05 11:00:00 22 8 Nordeste 13 Nordeste 0 -- -- 65
2020-07-05 10:00:00 20.7 0 Calma 12 Sur 0 -- -- 70
2020-07-05 09:00:00 16.5 8 Sur 16 Sur 0 -- -- 82
2020-07-05 08:00:00 14.6 13 Sur 18 Sur 0 -- -- 87
2020-07-05 07:00:00 13.8 13 Sur 18 Sur 0 -- -- 89
2020-07-05 06:00:00 14 11 Sur 18 Sur 0 -- -- 90
2020-07-05 05:00:00 14.2 13 Sur 18 Sur 0 -- -- 89
2020-07-05 04:00:00 14.5 12 Sur 18 Sur 0 -- -- 89
2020-07-05 03:00:00 14.8 13 Sur 17 Sur 0 -- -- 88
2020-07-05 02:00:00 15.5 11 Sur 16 Sur 0 -- -- 88
2020-07-05 01:00:00 16.3 8 Sur 15 Sur 0 -- -- 87
2020-07-05 00:00:00 17.2 7 Sur 14 Sur 0 -- -- 85
2020-07-04 23:00:00 18.5 8 Sur 11 Sur 0 -- -- 76
2020-07-04 22:00:00 20.2 3 Sudeste 12 Norte 0 -- -- 68
2020-07-04 21:00:00 22.1 10 Nordeste 19 Nordeste 0 -- -- 59
2020-07-04 20:00:00 23.3 12 Nordeste 18 Nordeste 0 -- -- 57
2020-07-04 19:00:00 23.7 12 Nordeste 16 Nordeste 0 -- -- 56
2020-07-04 18:00:00 23.1 11 Nordeste 17 Nordeste 0 -- -- 57
2020-07-04 17:00:00 22.7 12 Nordeste 21 Nordeste 0 -- -- 61
2020-07-04 16:00:00 22.1 13 Nordeste 25 Nordeste 0 -- -- 64
2020-07-04 15:00:00 22 16 Nordeste 24 Nordeste 0 -- -- 64
2020-07-04 14:00:00 21.4 14 Nordeste 22 Nordeste 0 -- -- 64
2020-07-04 13:00:00 21 16 Nordeste 22 Nordeste 0 -- -- 64
2020-07-04 12:00:00 21 13 Nordeste 19 Nordeste 0 -- -- 65
2020-07-04 11:00:00 20.9 0 Calma 8 Norte 0 -- -- 67
2020-07-04 10:00:00 19 0 Calma 11 Sur 0 -- -- 82
2020-07-04 09:00:00 15.1 3 Sur 16 Sur 0 -- -- 94
2020-07-04 08:00:00 13.3 9 Sur 16 Sur 0 -- -- 95
2020-07-04 07:00:00 12.6 10 Sur 17 Sur 0 -- -- 95
2020-07-04 06:00:00 12.8 10 Sur 17 Sur 0 -- -- 95
2020-07-04 05:00:00 13 10 Sur 15 Sur 0 -- -- 95
2020-07-04 04:00:00 13.3 10 Sur 15 Sur 0 -- -- 94
2020-07-04 03:00:00 13.6 10 Sur 16 Sur 0 -- -- 93
2020-07-04 02:00:00 13.9 10 Sur 15 Sur 0 -- -- 91
2020-07-04 01:00:00 14.5 10 Sur 14 Sur 0 -- -- 88
2020-07-04 00:00:00 15.6 10 Sur 14 Sur 0 -- -- 84
2020-07-03 23:00:00 17 8 Sur 11 Sur 0 -- -- 75
2020-07-03 22:00:00 19 2 Nordeste 13 Nordeste 0 -- -- 64
2020-07-03 21:00:00 21.7 8 Norte 15 Norte 0 -- -- 55
2020-07-03 20:00:00 22.5 7 Norte 19 Norte 0 -- -- 54
2020-07-03 19:00:00 22.6 8 Norte 17 Noroeste 0 -- -- 57
2020-07-03 18:00:00 22.2 10 Norte 18 Noroeste 0 -- -- 57
2020-07-03 17:00:00 22.3 9 Norte 19 Noroeste 0 -- -- 57
2020-07-03 16:00:00 22.1 9 Norte 22 Norte 0 -- -- 59
2020-07-03 15:00:00 21 12 Norte 23 Nordeste 0 -- -- 62
2020-07-03 14:00:00 20.7 12 Norte 21 Noroeste 0 -- -- 67
2020-07-03 13:00:00 19.1 8 Oeste 24 Noroeste 0 -- -- 74
2020-07-03 12:00:00 18 11 Noroeste 27 Noroeste 0 -- -- 76
2020-07-03 11:00:00 17.8 17 Noroeste 32 Noroeste 0 -- -- 85
2020-07-03 10:00:00 16.4 8 Noroeste 18 Noroeste 0 -- -- 94
2020-07-03 09:00:00 15.7 3 Sur 11 Sur 0 -- -- 98
2020-07-03 08:00:00 15.3 7 Sur 12 Sudoeste 0 -- -- 98
2020-07-03 07:00:00 15.1 8 Sur 12 Sudoeste 0 -- -- 98
2020-07-03 06:00:00 15 8 Sur 13 Sur 0 -- -- 97
2020-07-03 05:00:00 15.2 6 Sur 12 Sur 0 -- -- 97
2020-07-03 04:00:00 15.2 8 Sur 13 Sur 0.6 -- -- 97
2020-07-03 03:00:00 15.4 3 Sur 13 Sur 0.2 -- -- 97
2020-07-03 02:00:00 15.5 3 Sur 16 Sudoeste 0 -- -- 96
2020-07-03 01:00:00 15.7 6 Sur 30 Oeste 0.1 -- -- 95
2020-07-03 00:00:00 16.4 20 Noroeste 36 Noroeste 0 -- -- 94
2020-07-02 23:00:00 16.2 5 Sur 29 Noroeste 0.3 -- -- 94
2020-07-02 22:00:00 16.4 6 Oeste 22 Noroeste 3.3 -- -- 94
2020-07-02 21:00:00 16.5 0 Calma 24 Oeste 0.5 -- -- 91
2020-07-02 20:00:00 16.9 22 Noroeste 40 Noroeste 0.7 -- -- 90
2020-07-02 19:00:00 17.3 14 Oeste 45 Noroeste 0 -- -- 91
2020-07-02 18:00:00 17.8 23 Noroeste 35 Noroeste 0 -- -- 92
2020-07-02 17:00:00 17.8 6 Sur 15 Sudoeste 0 -- -- 92
2020-07-02 16:00:00 18.2 7 Sur 22 Norte 0 -- -- 92
2020-07-02 15:00:00 16.9 17 Noroeste 41 Noroeste 0.3 -- -- 97
2020-07-02 14:00:00 17.8 3 Sur 29 Noroeste 0 -- -- 98
2020-07-02 13:00:00 16.9 22 Noroeste 32 Noroeste 0.6 -- -- 98
2020-07-02 12:00:00 17.6 14 Noroeste 31 Noroeste 1.8 -- -- 98
2020-07-02 11:00:00 17.3 8 Noroeste 24 Noroeste 0.7 -- -- 98
2020-07-02 10:00:00 17.1 9 Noroeste 22 Noroeste 1 -- -- 98
2020-07-02 09:00:00 17.2 14 Noroeste 27 Noroeste 0.2 -- -- 98
2020-07-02 08:00:00 16.9 4 Oeste 15 Oeste 0 -- -- 98
2020-07-02 07:00:00 17 10 Noroeste 30 Noroeste 0 -- -- 98
2020-07-02 06:00:00 17 4 Oeste 19 Oeste 0.1 -- -- 98
2020-07-02 05:00:00 17.2 6 Sur 13 Sudeste 0.2 -- -- 98
2020-07-02 04:00:00 17.2 3 Sur 11 Sudeste 0 -- -- 98
2020-07-02 03:00:00 17.2 8 Sur 14 Sur 0 -- -- 98
2020-07-02 02:00:00 17.4 5 Oeste 14 Noroeste 1.3 -- -- 98
2020-07-02 01:00:00 17.6 9 Oeste 35 Noroeste 1.3 -- -- 98
2020-07-02 00:00:00 18.1 26 Noroeste 43 Noroeste 2.6 -- -- 97
2020-07-01 23:00:00 19.6 26 Noroeste 39 Noroeste 1.8 -- -- 93
2020-07-01 22:00:00 20.2 21 Norte 33 Noroeste 0 -- -- 91
2020-07-01 21:00:00 20.9 10 Norte 19 Norte 0 -- -- 87
2020-07-01 20:00:00 20.8 12 Norte 24 Noroeste 0 -- -- 87
2020-07-01 19:00:00 21.6 14 Noroeste 23 Noroeste 0 -- -- 82
2020-07-01 18:00:00 22.4 19 Noroeste 25 Noroeste 0 -- -- 77
2020-07-01 17:00:00 23.3 13 Noroeste 18 Noroeste 0 -- -- 72
2020-07-01 16:00:00 24.4 10 Noroeste 15 Noroeste 0 -- -- 70
2020-07-01 15:00:00 23.1 9 Noroeste 19 Noroeste 0 -- -- 73
2020-07-01 14:00:00 23 12 Noroeste 17 Noroeste 0 -- -- 78
2020-07-01 13:00:00 22.8 12 Noroeste 18 Noroeste 0 -- -- 81
2020-07-01 12:00:00 21.7 3 Norte 10 Noroeste 0 -- -- 83
2020-07-01 11:00:00 21.1 0 Calma 9 Norte 0 -- -- 89
2020-07-01 10:00:00 20.3 0 Calma 8 Noroeste 0 -- -- 93
2020-07-01 09:00:00 20.1 0 Calma 8 Sudeste 0 -- -- 95
2020-07-01 08:00:00 19.4 3 Sur 9 Sur 0 -- -- 95
2020-07-01 07:00:00 19.3 4 Sur 10 Sur 0.5 -- -- 94
2020-07-01 06:00:00 19.5 4 Oeste 14 Noroeste 0.1 -- -- 93
2020-07-01 05:00:00 19.3 0 Calma 8 Noroeste 0 -- -- 91
2020-07-01 04:00:00 19.5 0 Calma 9 Sudeste 0 -- -- 91
2020-07-01 03:00:00 19.8 3 Sur 7 Sur 0 -- -- 91
2020-07-01 02:00:00 19.7 0 Calma 4 Sudoeste 0 -- -- 91
2020-07-01 01:00:00 19.7 0 Calma 6 Sudeste 0 -- -- 90
2020-07-01 00:00:00 19.6 4 Sudeste 7 Sur 0 -- -- 87
2020-06-30 23:00:00 20.3 2 Sudoeste 9 Nordeste 0 -- -- 83
2020-06-30 22:00:00 21 6 Nordeste 16 Nordeste 0 -- -- 77
2020-06-30 21:00:00 22.8 11 Nordeste 21 Nordeste 0 -- -- 69
2020-06-30 20:00:00 23.5 14 Nordeste 21 Nordeste 0 -- -- 68
2020-06-30 19:00:00 23.9 13 Nordeste 20 Nordeste 0 -- -- 67
2020-06-30 18:00:00 24.4 11 Nordeste 19 Nordeste 0 -- -- 66
2020-06-30 17:00:00 23.6 14 Nordeste 19 Nordeste 0 -- -- 66
2020-06-30 16:00:00 23.5 14 Nordeste 21 Nordeste 0 -- -- 66
2020-06-30 15:00:00 23.1 15 Nordeste 21 Nordeste 0 -- -- 67
2020-06-30 14:00:00 22.4 15 Nordeste 23 Nordeste 0 -- -- 67
2020-06-30 13:00:00 21.6 16 Nordeste 23 Nordeste 0 -- -- 70
2020-06-30 12:00:00 21.3 17 Nordeste 21 Nordeste 0 -- -- 70
2020-06-30 11:00:00 21.3 13 Nordeste 18 Nordeste 0 -- -- 70
2020-06-30 10:00:00 19.9 5 Norte 11 Nordeste 0 -- -- 85
2020-06-30 09:00:00 16.9 6 Sur 13 Sur 0 -- -- 96
2020-06-30 08:00:00 15.1 9 Sur 14 Sur 0 -- -- 96
2020-06-30 07:00:00 14.5 11 Sur 15 Sur 0 -- -- 96
2020-06-30 06:00:00 14.7 8 Sur 14 Sur 0 -- -- 96
2020-06-30 05:00:00 14.9 9 Sur 16 Sur 0 -- -- 95
2020-06-30 04:00:00 15.1 8 Sur 13 Sur 0 -- -- 95
2020-06-30 03:00:00 15.1 8 Sur 12 Sur 0 -- -- 94
2020-06-30 02:00:00 15.7 8 Sur 13 Sur 0 -- -- 92
2020-06-30 01:00:00 16.3 9 Sur 12 Sur 0 -- -- 90
2020-06-30 00:00:00 17 5 Sur 9 Sur 0 -- -- 85
2020-06-29 23:00:00 17.9 0 Calma 7 Sudeste 0 -- -- 75
2020-06-29 22:00:00 19.6 3 Sudeste 12 Nordeste 0 -- -- 67
2020-06-29 21:00:00 21.8 8 Nordeste 17 Norte 0 -- -- 63
2020-06-29 20:00:00 23.2 6 Nordeste 14 Norte 0 -- -- 61
2020-06-29 19:00:00 22.2 5 Nordeste 14 Norte 0 -- -- 64
2020-06-29 18:00:00 21.2 6 Norte 14 Norte 0 -- -- 66
2020-06-29 17:00:00 21.2 8 Norte 14 Norte 0 -- -- 69
2020-06-29 16:00:00 21.3 8 Norte 14 Norte 0 -- -- 71
2020-06-29 15:00:00 20.2 10 Noroeste 14 Noroeste 0 -- -- 78
2020-06-29 14:00:00 19.2 5 Noroeste 21 Noroeste 0 -- -- 84
2020-06-29 13:00:00 19 8 Noroeste 16 Noroeste 0 -- -- 87
2020-06-29 12:00:00 19.1 5 Noroeste 11 Oeste 0 -- -- 88
2020-06-29 11:00:00 18.3 4 Noroeste 11 Noroeste 0 -- -- 91
2020-06-29 10:00:00 18.1 0 Calma 12 Noroeste 0.2 -- -- 90
2020-06-29 09:00:00 18.4 6 Noroeste 30 Noroeste 0 -- -- 86
2020-06-29 08:00:00 18.8 15 Noroeste 26 Noroeste 0 -- -- 85
2020-06-29 07:00:00 18.6 16 Noroeste 30 Noroeste 0 -- -- 85
2020-06-29 06:00:00 18.7 18 Noroeste 34 Noroeste 0 -- -- 91
2020-06-29 05:00:00 18.5 22 Noroeste 36 Noroeste 0 -- -- 94
2020-06-29 04:00:00 18.9 23 Noroeste 39 Noroeste 0.3 -- -- 94
2020-06-29 03:00:00 20.2 21 Noroeste 33 Noroeste 0 -- -- 90
2020-06-29 02:00:00 20.5 4 Noroeste 18 Noroeste 0 -- -- 85
2020-06-29 01:00:00 20.7 10 Noroeste 21 Noroeste 0 -- -- 84
2020-06-29 00:00:00 20.7 13 Noroeste 19 Noroeste 0 -- -- 83
2020-06-28 23:00:00 21 13 Noroeste 22 Noroeste 0 -- -- 81
2020-06-28 22:00:00 21.3 13 Noroeste 21 Noroeste 0 -- -- 76
2020-06-28 21:00:00 22.2 14 Noroeste 21 Noroeste 0 -- -- 71
2020-06-28 20:00:00 24.1 6 Noroeste 12 Noroeste 0 -- -- 69
2020-06-28 19:00:00 25.7 7 Norte 17 Nordeste 0 -- -- 64
2020-06-28 18:00:00 25.3 9 Nordeste 21 Nordeste 0 -- -- 67
2020-06-28 17:00:00 24.5 14 Nordeste 29 Nordeste 0 -- -- 70
2020-06-28 16:00:00 23.7 21 Nordeste 25 Nordeste 0 -- -- 70
2020-06-28 15:00:00 22.8 18 Nordeste 27 Nordeste 0 -- -- 73
2020-06-28 14:00:00 23 17 Nordeste 23 Nordeste 0.1 -- -- 75
2020-06-28 13:00:00 22.2 3 Nordeste 11 Nordeste 0 -- -- 87
2020-06-28 12:00:00 19.8 0 Calma 13 Norte 0 -- -- 95
2020-06-28 11:00:00 19.3 10 Noroeste 15 Noroeste 0 -- -- 97
2020-06-28 10:00:00 19 0 Calma 7 Sur 0 -- -- 97
2020-06-28 09:00:00 18.5 0 Calma 8 Sur 0.1 -- -- 97
2020-06-28 08:00:00 18.2 0 Calma -- -- 0.2 -- -- 97
2020-06-28 07:00:00 18.1 0 Calma 10 Oeste 0.1 -- -- 96
2020-06-28 06:00:00 18.5 0 Calma 0 Calma 0.2 -- -- 96
2020-06-28 05:00:00 18.7 0 Calma 5 Sur 0.4 -- -- 95
2020-06-28 04:00:00 18.7 0 Calma 7 Sudoeste 0.4 -- -- 94
2020-06-28 03:00:00 19.2 4 Oeste 24 Noroeste 0 -- -- 91
2020-06-28 02:00:00 19.7 17 Noroeste 27 Noroeste 0 -- -- 90
2020-06-28 01:00:00 20.3 17 Noroeste 28 Oeste 0 -- -- 89
2020-06-28 00:00:00 20.4 23 Noroeste 37 Noroeste 0 -- -- 91
2020-06-27 23:00:00 22 18 Noroeste 26 Noroeste 0 -- -- 87
2020-06-27 22:00:00 22.1 0 Calma 8 Nordeste 0 -- -- 78
2020-06-27 21:00:00 23.8 4 Nordeste 16 Nordeste 0 -- -- 71
2020-06-27 20:00:00 24.2 8 Nordeste 17 Norte 0 -- -- 73
2020-06-27 19:00:00 25.2 9 Nordeste 19 Norte 0 -- -- 70
2020-06-27 18:00:00 24.5 12 Nordeste 17 Nordeste 0 -- -- 73
2020-06-27 17:00:00 24.1 7 Norte 14 Norte 0 -- -- 68
2020-06-27 16:00:00 24.3 13 Norte 19 Norte 0 -- -- 70
2020-06-27 15:00:00 24.2 9 Noroeste 14 Norte 0 -- -- 72
2020-06-27 14:00:00 23.5 8 Nordeste 14 Nordeste 0 -- -- 73
2020-06-27 13:00:00 22.4 9 Norte 16 Norte 0 -- -- 75
2020-06-27 12:00:00 22.2 13 Nordeste 18 Norte 0 -- -- 74
2020-06-27 11:00:00 21.2 7 Norte 10 Norte 0 -- -- 78
2020-06-27 10:00:00 20.9 0 Calma 14 Sur 0 -- -- 87
2020-06-27 09:00:00 17.9 8 Sur 14 Sur 0 -- -- 97
2020-06-27 08:00:00 16.5 10 Sur 17 Sur 0.2 -- -- 97
2020-06-27 07:00:00 15.8 11 Sur 17 Sur 0 -- -- 97
2020-06-27 06:00:00 15.9 9 Sur 14 Sur 0 -- -- 97
2020-06-27 05:00:00 16.3 8 Sur 13 Sur 0 -- -- 97
2020-06-27 04:00:00 16.8 2 Sur 13 Sur 0 -- -- 97
2020-06-27 03:00:00 16.7 7 Sur 22 Sudeste 0 -- -- 97
2020-06-27 02:00:00 16.9 11 Sur 17 Sudeste 0 -- -- 97
2020-06-27 01:00:00 17 0 Calma 13 Sudoeste 0 -- -- 96
2020-06-27 00:00:00 17.4 6 Sur 26 Sudeste 0 -- -- 96
2020-06-26 23:00:00 17.9 5 Sur 12 Sudeste 0 -- -- 96
2020-06-26 22:00:00 18.1 0 Calma 15 Noroeste 0 -- -- 94
2020-06-26 21:00:00 18.5 4 Noroeste 20 Noroeste 0 -- -- 90
2020-06-26 20:00:00 19.2 10 Noroeste 16 Noroeste 0 -- -- 87
2020-06-26 19:00:00 19.2 0 Calma 12 Noroeste 0 -- -- 86
2020-06-26 18:00:00 18.9 5 Noroeste 17 Noroeste 0 -- -- 85
2020-06-26 17:00:00 19.5 8 Noroeste 13 Noroeste 0 -- -- 84
2020-06-26 16:00:00 19.8 6 Norte 18 Norte 0 -- -- 87
2020-06-26 15:00:00 20 9 Noroeste 14 Noroeste 0 -- -- 92
2020-06-26 14:00:00 19 8 Noroeste 16 Noroeste 0 -- -- 97
2020-06-26 13:00:00 18.5 11 Noroeste 21 Noroeste 0.1 -- -- 97
2020-06-26 12:00:00 18.4 13 Noroeste 20 Noroeste 0.2 -- -- 97
2020-06-26 11:00:00 18.2 13 Noroeste 20 Noroeste 0.1 -- -- 98
2020-06-26 10:00:00 18 6 Noroeste 19 Noroeste 0 -- -- 98
2020-06-26 09:00:00 18.1 14 Noroeste 22 Noroeste 0.2 -- -- 98
2020-06-26 08:00:00 18.1 12 Noroeste 18 Noroeste 0.1 -- -- 97
2020-06-26 07:00:00 18.2 13 Noroeste 21 Noroeste 0 -- -- 96
2020-06-26 06:00:00 18 9 Noroeste 15 Noroeste 0 -- -- 96
2020-06-26 05:00:00 18 3 Noroeste 10 Noroeste 0 -- -- 96
2020-06-26 04:00:00 18 0 Calma 21 Noroeste 0 -- -- 96
2020-06-26 03:00:00 18.2 12 Noroeste 23 Noroeste 0 -- -- 96
2020-06-26 02:00:00 18.4 9 Noroeste 27 Noroeste 0 -- -- 96
2020-06-26 01:00:00 18.3 4 Oeste 26 Oeste 0 -- -- 96
2020-06-26 00:00:00 18.5 7 Noroeste 20 Noroeste 0 -- -- 96
2020-06-25 23:00:00 18.6 11 Noroeste 21 Noroeste 0 -- -- 96
2020-06-25 22:00:00 18.8 0 Calma 15 Noroeste 0 -- -- 95
2020-06-25 21:00:00 18.9 10 Norte 37 Noroeste 0.5 -- -- 95
2020-06-25 20:00:00 19 18 Noroeste 42 Noroeste 0.1 -- -- 94
2020-06-25 19:00:00 19.9 12 Nordeste 18 Este 0.1 -- -- 91
2020-06-25 18:00:00 19.7 8 Sur 21 Sudeste 0.3 -- -- 91
2020-06-25 17:00:00 19.6 3 Oeste 41 Noroeste 0 -- -- 89
2020-06-25 16:00:00 19.7 25 Noroeste 43 Noroeste 0 -- -- 88
2020-06-25 15:00:00 20.3 26 Noroeste 41 Noroeste 0 -- -- 85
2020-06-25 14:00:00 21.7 19 Noroeste 28 Noroeste 0 -- -- 79
2020-06-25 13:00:00 23.5 5 Norte 13 Noroeste 0 -- -- 77
2020-06-25 12:00:00 22.2 8 Noroeste 34 Noroeste 0 -- -- 85
2020-06-25 11:00:00 20.6 24 Noroeste 38 Noroeste 0 -- -- 87
2020-06-25 10:00:00 21.5 11 Norte 21 Norte 0 -- -- 87
2020-06-25 09:00:00 20.3 3 Sudeste 38 Noroeste 0 -- -- 95
2020-06-25 08:00:00 19.6 24 Noroeste 37 Noroeste 0 -- -- 95
2020-06-25 07:00:00 20.5 25 Noroeste 39 Noroeste 0 -- -- 94
2020-06-25 06:00:00 19.7 9 Sudoeste 26 Oeste 0 -- -- 91
2020-06-25 05:00:00 18.9 5 Sur 15 Sur 0 -- -- 93
2020-06-25 04:00:00 19 13 Sur 18 Sudeste 0 -- -- 93
2020-06-25 03:00:00 19.7 7 Sudoeste 10 Sudoeste 0 -- -- 91
2020-06-25 02:00:00 20.5 3 Sudeste 6 Sur 0 -- -- 91
2020-06-25 01:00:00 20.5 4 Sudoeste 15 Sur 0 -- -- 92
2020-06-25 00:00:00 20.4 11 Sur 22 Sudeste 0 -- -- 92
2020-06-24 23:00:00 20.2 15 Sur 29 Sudeste 0 -- -- 92
2020-06-24 22:00:00 20 9 Sur 32 Noroeste 0 -- -- 91
2020-06-24 21:00:00 20.4 19 Noroeste 30 Noroeste 0 -- -- 91
2020-06-24 20:00:00 20.4 18 Noroeste 37 Noroeste 0 -- -- 90
2020-06-24 19:00:00 22.4 11 Noroeste 16 Noroeste 0 -- -- 81
2020-06-24 18:00:00 22.6 9 Noroeste 14 Oeste 0 -- -- 80
2020-06-24 17:00:00 22.4 6 Norte 13 Oeste 0 -- -- 83
2020-06-24 16:00:00 22.5 6 Noroeste 13 Noroeste 0 -- -- 80
2020-06-24 15:00:00 22.7 9 Noroeste 15 Noroeste 0 -- -- 84
2020-06-24 14:00:00 22.6 13 Noroeste 22 Noroeste 0 -- -- 79
2020-06-24 13:00:00 23.1 12 Noroeste 23 Noroeste 0 -- -- 79
2020-06-24 12:00:00 23.7 16 Noroeste 20 Noroeste 0 -- -- 81
2020-06-24 11:00:00 22.4 6 Noroeste 22 Noroeste 0 -- -- 85
2020-06-24 10:00:00 21.5 8 Oeste 22 Noroeste 0 -- -- 89
2020-06-24 09:00:00 21.3 13 Noroeste 24 Noroeste 0 -- -- 90
2020-06-24 08:00:00 20.1 4 Sudoeste 17 Sudoeste 0 -- -- 96
2020-06-24 07:00:00 19.1 8 Sur 15 Sudoeste 0 -- -- 97
2020-06-24 06:00:00 19.3 12 Sur 17 Sur 0 -- -- 97
2020-06-24 05:00:00 19.4 9 Sur 13 Sudoeste 0 -- -- 96
2020-06-24 04:00:00 19.5 8 Sur 14 Sur 0 -- -- 95
2020-06-24 03:00:00 19.6 6 Sur 10 Sudoeste 0 -- -- 95
2020-06-24 02:00:00 19.8 7 Sur 12 Sudoeste 0 -- -- 94
2020-06-24 01:00:00 20.1 8 Sudoeste 12 Sudoeste 0 -- -- 92
2020-06-24 00:00:00 20.6 8 Sur 12 Sudoeste 0 -- -- 89
2020-06-23 23:00:00 21.4 0 Calma 9 Oeste 0 -- -- 84
2020-06-23 22:00:00 22.6 0 Calma 12 Noroeste 0 -- -- 78
2020-06-23 21:00:00 24.3 8 Noroeste 12 Noroeste 0 -- -- 73
2020-06-23 20:00:00 24.9 7 Noroeste 15 Noroeste 0 -- -- 70
2020-06-23 19:00:00 25.6 5 Noroeste 19 Noroeste 0 -- -- 68
2020-06-23 18:00:00 24.9 12 Noroeste 22 Oeste 0 -- -- 70
2020-06-23 17:00:00 23.5 12 Noroeste 19 Noroeste 0 -- -- 71
2020-06-23 16:00:00 25.1 12 Noroeste 18 Noroeste 0 -- -- 71
2020-06-23 15:00:00 24.6 12 Noroeste 15 Noroeste 0 -- -- 75
2020-06-23 14:00:00 22.7 10 Noroeste 12 Noroeste 0 -- -- 79
2020-06-23 13:00:00 22 10 Norte 16 Norte 0 -- -- 78
2020-06-23 12:00:00 22.7 12 Nordeste 15 Nordeste 0 -- -- 76
2020-06-23 11:00:00 21.1 13 Nordeste 17 Nordeste 0 -- -- 82
2020-06-23 10:00:00 20.1 0 Calma 9 Sur 0 -- -- 88
2020-06-23 09:00:00 17.8 6 Sur 14 Sur 0 -- -- 96
2020-06-23 08:00:00 16.2 9 Sur 15 Sur 0 -- -- 97
2020-06-23 07:00:00 15.2 9 Sur 14 Sur 0 -- -- 97
2020-06-23 06:00:00 15.1 9 Sur 14 Sur 0 -- -- 96
2020-06-23 05:00:00 15.3 9 Sur 14 Sur 0 -- -- 96
2020-06-23 04:00:00 15.6 8 Sur 14 Sur 0 -- -- 95
2020-06-23 03:00:00 16 10 Sur 14 Sur 0 -- -- 95
2020-06-23 02:00:00 16.7 7 Sur 14 Sur 0 -- -- 94
2020-06-23 01:00:00 17.3 8 Sur 13 Sur 0 -- -- 92
2020-06-23 00:00:00 18.1 7 Sur 16 Sudeste 0 -- -- 89
2020-06-22 23:00:00 18.9 9 Sudeste 13 Sudeste 0 -- -- 87
2020-06-22 22:00:00 20 5 Sudeste 15 Este 0 -- -- 81
2020-06-22 21:00:00 21.5 7 Nordeste 19 Nordeste 0 -- -- 75
2020-06-22 20:00:00 21.6 14 Nordeste 21 Nordeste 0 -- -- 72
2020-06-22 19:00:00 22.6 17 Nordeste 21 Nordeste 0 -- -- 71
2020-06-22 18:00:00 22.1 16 Nordeste 22 Nordeste 0 -- -- 73
2020-06-22 17:00:00 22.1 15 Nordeste 25 Nordeste 0 -- -- 73
2020-06-22 16:00:00 21.7 19 Nordeste 26 Nordeste 0 -- -- 77
2020-06-22 15:00:00 21.9 17 Nordeste 24 Nordeste 0 -- -- 77
2020-06-22 14:00:00 21.2 20 Nordeste 26 Nordeste 0 -- -- 78
2020-06-22 13:00:00 21.3 18 Nordeste 25 Nordeste 0 -- -- 77
2020-06-22 12:00:00 21.1 18 Nordeste 23 Nordeste 0 -- -- 75
2020-06-22 11:00:00 21.9 13 Nordeste 18 Nordeste 0 -- -- 75
2020-06-22 10:00:00 21.4 6 Nordeste 8 Norte 0 -- -- 79
2020-06-22 09:00:00 18.8 3 Sudoeste 10 Sur 0 -- -- 89
2020-06-22 08:00:00 17.5 6 Sur 9 Sur 0 -- -- 92
2020-06-22 07:00:00 16.8 7 Sur 9 Sur 0 -- -- 92
2020-06-22 06:00:00 16.8 7 Sudoeste 10 Sur 0 -- -- 91
2020-06-22 05:00:00 16.8 7 Sur 10 Sur 0 -- -- 86
2020-06-22 04:00:00 17.8 4 Sur 11 Sur 0 -- -- 83
2020-06-22 03:00:00 18.1 5 Sur 10 Sur 0 -- -- 81
2020-06-22 02:00:00 18 6 Sur 12 Sur 0 -- -- 78
2020-06-22 01:00:00 18 7 Sur 12 Sur 0 -- -- 78
2020-06-22 00:00:00 18.5 5 Sur 13 Sur 0 -- -- 78
2020-06-21 23:00:00 18.6 7 Sur 13 Sudeste 0 -- -- 79
2020-06-21 22:00:00 19.7 7 Sudeste 10 Sudeste 0 -- -- 75
2020-06-21 21:00:00 20.4 3 Noroeste 13 Noroeste 0 -- -- 75
2020-06-21 20:00:00 22 5 Noroeste 14 Noroeste 0 -- -- 71
2020-06-21 19:00:00 23.1 7 Noroeste 20 Noroeste 0 -- -- 68
2020-06-21 18:00:00 23.7 13 Noroeste 18 Noroeste 0 -- -- 69
2020-06-21 17:00:00 23.4 13 Noroeste 22 Noroeste 0 -- -- 71
2020-06-21 16:00:00 22.9 15 Noroeste 19 Noroeste 0 -- -- 70
2020-06-21 15:00:00 23.8 10 Noroeste 17 Noroeste 0 -- -- 71
2020-06-21 14:00:00 22.5 14 Noroeste 17 Noroeste 0 -- -- 73
2020-06-21 13:00:00 21.4 10 Noroeste 14 Noroeste 0 -- -- 75
2020-06-21 12:00:00 20.7 10 Noroeste 13 Noroeste 0 -- -- 76
2020-06-21 11:00:00 20.1 8 Noroeste 10 Noroeste 0 -- -- 76
2020-06-21 10:00:00 18.9 4 Norte 9 Noroeste 0 -- -- 82
2020-06-21 09:00:00 16.7 4 Sur 12 Sur 0 -- -- 93
2020-06-21 08:00:00 14.7 8 Sur 14 Sur 0 -- -- 95
2020-06-21 07:00:00 14 10 Sur 15 Sur 0 -- -- 95
2020-06-21 06:00:00 14.2 10 Sur 15 Sur 0 -- -- 95
2020-06-21 05:00:00 14.6 9 Sur 14 Sur 0 -- -- 95
2020-06-21 04:00:00 14.7 7 Sur 14 Sur 0 -- -- 95
2020-06-21 03:00:00 14.9 11 Sur 18 Sur 0 -- -- 94
2020-06-21 02:00:00 15.2 11 Sur 15 Sur 0 -- -- 93
2020-06-21 01:00:00 15.8 8 Sur 13 Sur 0 -- -- 91
2020-06-21 00:00:00 16.6 8 Sur 11 Sur 0 -- -- 87
2020-06-20 23:00:00 17.7 6 Sur 9 Sur 0 -- -- 79
2020-06-20 22:00:00 19.6 0 Calma -- -- 0 -- -- 71
2020-06-20 21:00:00 21.3 0 Calma 10 Norte 0 -- -- 68
2020-06-20 20:00:00 21.3 8 Norte 14 Norte 0 -- -- 69
2020-06-20 19:00:00 22 11 Nordeste 17 Nordeste 0 -- -- 67
2020-06-20 18:00:00 21.7 14 Nordeste 18 Nordeste 0 -- -- 68
2020-06-20 17:00:00 21.6 14 Nordeste 21 Nordeste 0 -- -- 69
2020-06-20 16:00:00 21.5 15 Nordeste 23 Nordeste 0 -- -- 70
2020-06-20 15:00:00 20.9 15 Nordeste 24 Nordeste 0 -- -- 72
2020-06-20 14:00:00 20.2 17 Nordeste 22 Nordeste 0 -- -- 74
2020-06-20 13:00:00 20.4 16 Nordeste 21 Nordeste 0 -- -- 73
2020-06-20 12:00:00 20.2 14 Nordeste 19 Nordeste 0 -- -- 73
2020-06-20 11:00:00 19.6 12 Nordeste 15 Nordeste 0 -- -- 77
2020-06-20 10:00:00 18.6 0 Calma 7 Sudeste 0 -- -- 83
2020-06-20 09:00:00 16 5 Sur 13 Sur 0 -- -- 95
2020-06-20 08:00:00 14.2 8 Sur 15 Sur 0 -- -- 96
2020-06-20 07:00:00 13.5 9 Sur 15 Sur 0 -- -- 96
2020-06-20 06:00:00 13.5 10 Sur 15 Sur 0 -- -- 95
2020-06-20 05:00:00 13.7 11 Sur 15 Sur 0 -- -- 95
2020-06-20 04:00:00 14 10 Sur 14 Sur 0 -- -- 94
2020-06-20 03:00:00 14.3 9 Sur 13 Sur 0 -- -- 93
2020-06-20 02:00:00 14.8 9 Sur 12 Sur 0 -- -- 91
2020-06-20 01:00:00 15.5 8 Sur 11 Sur 0 -- -- 89
2020-06-20 00:00:00 16.3 7 Sur 9 Sur 0 -- -- 84
2020-06-19 23:00:00 17.7 0 Calma 7 Noroeste 0 -- -- 76
2020-06-19 22:00:00 18.5 5 Noroeste 10 Noroeste 0 -- -- 71
2020-06-19 21:00:00 20 7 Norte 12 Noroeste 0 -- -- 68
2020-06-19 20:00:00 20.8 6 Norte 13 Norte 0 -- -- 65
2020-06-19 19:00:00 21.7 8 Norte 14 Norte 0 -- -- 65
2020-06-19 18:00:00 21.4 8 Norte 16 Norte 0 -- -- 65
2020-06-19 17:00:00 21.5 8 Norte 17 Norte 0 -- -- 67
2020-06-19 16:00:00 20.9 9 Norte 17 Norte 0 -- -- 67
2020-06-19 15:00:00 20.5 11 Norte 19 Norte 0 -- -- 69
2020-06-19 14:00:00 20.7 10 Norte 15 Norte 0 -- -- 70
2020-06-19 13:00:00 20.7 8 Norte 14 Norte 0 -- -- 71
2020-06-19 12:00:00 19.3 6 Nordeste 12 Norte 0 -- -- 74
2020-06-19 11:00:00 18.3 7 Noroeste 10 Norte 0 -- -- 80
2020-06-19 10:00:00 18.1 7 Nordeste 10 Nordeste 0 -- -- 86
2020-06-19 09:00:00 14.9 6 Sur 13 Sur 0 -- -- 94
2020-06-19 08:00:00 13.2 9 Sur 17 Sur 0 -- -- 95
2020-06-19 07:00:00 12.7 10 Sur 16 Sur 0 -- -- 95
2020-06-19 06:00:00 12.9 9 Sur 14 Sur 0 -- -- 94
2020-06-19 05:00:00 13.2 10 Sur 14 Sur 0 -- -- 94
2020-06-19 04:00:00 13.4 10 Sur 14 Sur 0 -- -- 94
2020-06-19 03:00:00 13.7 8 Sur 19 Sur 0 -- -- 93
2020-06-19 02:00:00 14 8 Sur 14 Sur 0 -- -- 92
2020-06-19 01:00:00 14 8 Sur 13 Sur 0 -- -- 91
2020-06-19 00:00:00 14.4 9 Sur 12 Sur 0 -- -- 88
2020-06-18 23:00:00 15.4 6 Sur 10 Sudeste 0 -- -- 81
2020-06-18 22:00:00 17.2 0 Calma 9 Norte 0 -- -- 71
2020-06-18 21:00:00 19.3 4 Norte 10 Nordeste 0 -- -- 67
2020-06-18 20:00:00 19.9 5 Norte 12 Noroeste 0 -- -- 66
2020-06-18 19:00:00 20.9 7 Norte 14 Norte 0 -- -- 64
2020-06-18 18:00:00 21.5 8 Norte 19 Noroeste 0 -- -- 67
2020-06-18 17:00:00 20.5 14 Noroeste 19 Noroeste 0 -- -- 67
2020-06-18 16:00:00 19.9 11 Noroeste 19 Noroeste 0 -- -- 69
2020-06-18 15:00:00 18.7 17 Noroeste 25 Noroeste 0 -- -- 71
2020-06-18 14:00:00 20 16 Noroeste 24 Noroeste 0 -- -- 72
2020-06-18 13:00:00 18.9 17 Noroeste 23 Noroeste 0 -- -- 74
2020-06-18 12:00:00 18.8 9 Norte 14 Norte 0 -- -- 74
2020-06-18 11:00:00 17.8 4 Norte 12 Noroeste 0 -- -- 79
2020-06-18 10:00:00 17.1 5 Noroeste 10 Noroeste 0 -- -- 97
2020-06-18 09:00:00 15.4 3 Sur 9 Sur 0 -- -- 98
2020-06-18 08:00:00 14.4 6 Sur 10 Sur 0.1 -- -- 98
2020-06-18 07:00:00 14 5 Sur 10 Sur 0 -- -- 98
2020-06-18 06:00:00 14.1 6 Sur 12 Sur 0.9 -- -- 97
2020-06-18 05:00:00 14.1 5 Sur 10 Sur 1.4 -- -- 96
2020-06-18 04:00:00 14.1 5 Sur 12 Sur 0 -- -- 95
2020-06-18 03:00:00 14.1 7 Sur 12 Sur 0 -- -- 95
2020-06-18 02:00:00 14.4 6 Sur 11 Sur 0 -- -- 94
2020-06-18 01:00:00 14.9 5 Sur 9 Sur 0 -- -- 92
2020-06-18 00:00:00 15.6 4 Sur 8 Sur 0 -- -- 88
2020-06-17 23:00:00 16.1 0 Calma 9 Noroeste 0 -- -- 84
2020-06-17 22:00:00 16.5 9 Noroeste 16 Noroeste 0 -- -- 83
2020-06-17 21:00:00 17.2 9 Noroeste 17 Noroeste 0 -- -- 80
2020-06-17 20:00:00 18.7 10 Noroeste 27 Noroeste 0 -- -- 73
2020-06-17 19:00:00 19.4 18 Noroeste 33 Noroeste 0 -- -- 74
2020-06-17 18:00:00 19.3 21 Noroeste 32 Noroeste 0 -- -- 75
2020-06-17 17:00:00 18.3 21 Noroeste 33 Noroeste 0 -- -- 79
2020-06-17 16:00:00 17.9 22 Noroeste 36 Noroeste 0 -- -- 81
2020-06-17 15:00:00 19.1 23 Noroeste 37 Noroeste 0.5 -- -- 81
2020-06-17 14:00:00 18.5 24 Noroeste 37 Noroeste 0 -- -- 77
2020-06-17 13:00:00 18.4 25 Noroeste 39 Noroeste 0.1 -- -- 75
2020-06-17 12:00:00 20.5 21 Noroeste 40 Noroeste 0 -- -- 65
2020-06-17 11:00:00 18.5 14 Noroeste 42 Noroeste 0 -- -- 70
2020-06-17 10:00:00 17.1 8 Noroeste 23 Noroeste 0 -- -- 76
2020-06-17 09:00:00 15.8 3 Oeste 30 Noroeste 0.1 -- -- 79
2020-06-17 08:00:00 15 5 Sudoeste 13 Oeste 0 -- -- 82
2020-06-17 07:00:00 14.7 3 Sur 18 Oeste 0 -- -- 80
2020-06-17 06:00:00 14.7 5 Sudoeste 13 Oeste 0 -- -- 85
2020-06-17 05:00:00 15.4 2 Sur 10 Sudoeste 0 -- -- 84
2020-06-17 04:00:00 15 4 Sur 9 Sudoeste 0 -- -- 85
2020-06-17 03:00:00 15.8 3 Sudoeste 12 Sudoeste 0 -- -- 80
2020-06-17 02:00:00 15.2 3 Sur 8 Sudoeste 0 -- -- 88
2020-06-17 01:00:00 15.9 3 Sudeste 28 Noroeste 0 -- -- 83
2020-06-17 00:00:00 15.1 5 Sur 12 Sudoeste 0 -- -- 86
2020-06-16 23:00:00 16 4 Sudoeste 13 Oeste 0 -- -- 80
2020-06-16 22:00:00 16.4 4 Sur 10 Sudoeste 0 -- -- 85
2020-06-16 21:00:00 17.2 5 Noroeste 14 Noroeste 0 -- -- 85
2020-06-16 20:00:00 16.3 5 Sur 25 Noroeste 0 -- -- 90
2020-06-16 19:00:00 16 15 Noroeste 47 Noroeste 0.5 -- -- 89
2020-06-16 18:00:00 17.3 26 Noroeste 39 Noroeste 0 -- -- 79
2020-06-16 17:00:00 18.5 22 Noroeste 29 Noroeste 0 -- -- 76
2020-06-16 16:00:00 20.2 16 Noroeste 24 Noroeste 0 -- -- 79
2020-06-16 15:00:00 18.8 17 Noroeste 30 Noroeste 0.3 -- -- 88
2020-06-16 14:00:00 17.5 15 Noroeste 30 Noroeste 0.3 -- -- 81
2020-06-16 13:00:00 19.3 14 Norte 26 Norte 0 -- -- 70
2020-06-16 12:00:00 20.4 18 Nordeste 26 Nordeste 0 -- -- 67
2020-06-16 11:00:00 20.2 3 Norte 12 Sudeste 0 -- -- 72
2020-06-16 10:00:00 17.5 5 Sudeste 13 Sur 0 -- -- 87
2020-06-16 09:00:00 15.7 9 Sur 14 Sur 0 -- -- 91
2020-06-16 08:00:00 15.4 6 Sur 9 Sur 0 -- -- 92
2020-06-16 07:00:00 14.8 6 Sur 12 Sur 0 -- -- 92
2020-06-16 06:00:00 15.1 6 Sur 11 Sur 0 -- -- 91
2020-06-16 05:00:00 15.3 3 Sur 9 Sur 0 -- -- 90
2020-06-16 04:00:00 15.4 6 Sur 11 Sur 0 -- -- 88
2020-06-16 03:00:00 15.5 6 Sudeste 8 Sur 0 -- -- 87
2020-06-16 02:00:00 15.9 4 Sur 9 Sur 0 -- -- 84
2020-06-16 01:00:00 16.8 0 Calma 22 Noroeste 0 -- -- 79
2020-06-16 00:00:00 17 18 Noroeste 32 Noroeste 0 -- -- 79
2020-06-15 23:00:00 17.6 11 Noroeste 19 Noroeste 0 -- -- 70
2020-06-15 22:00:00 18 11 Noroeste 19 Noroeste 0 -- -- 68
2020-06-15 21:00:00 18.9 10 Noroeste 16 Noroeste 0 -- -- 64
2020-06-15 20:00:00 19.4 10 Norte 15 Norte 0 -- -- 61
2020-06-15 19:00:00 20.9 5 Norte 14 Norte 0 -- -- 59
2020-06-15 18:00:00 21.8 8 Norte 14 Norte 0 -- -- 58
2020-06-15 17:00:00 22.2 9 Nordeste 13 Nordeste 0 -- -- 57
2020-06-15 16:00:00 21.8 10 Nordeste 17 Nordeste 0 -- -- 56
2020-06-15 15:00:00 22.9 7 Nordeste 11 Nordeste 0 -- -- 58
2020-06-15 14:00:00 21.7 8 Nordeste 11 Nordeste 0 -- -- 61
2020-06-15 13:00:00 21.4 9 Norte 11 Nordeste 0 -- -- 62
2020-06-15 12:00:00 20.6 7 Nordeste 15 Nordeste 0 -- -- 63
2020-06-15 11:00:00 21.1 2 Sur 10 Sudeste 0 -- -- 62
2020-06-15 10:00:00 19 4 Sur 10 Sudoeste 0 -- -- 80
2020-06-15 09:00:00 15.6 4 Sur 10 Sur 0 -- -- 87
2020-06-15 08:00:00 15 6 Sur 13 Sur 0 -- -- 88
2020-06-15 07:00:00 14.6 8 Sur 11 Sur 0 -- -- 88
2020-06-15 06:00:00 14.7 5 Sur 11 Sur 0 -- -- 89
2020-06-15 05:00:00 14.4 7 Sur 12 Sur 0 -- -- 89
2020-06-15 04:00:00 14.5 6 Sur 13 Sur 0 -- -- 89
2020-06-15 03:00:00 14.4 6 Sur 13 Sur 0 -- -- 88
2020-06-15 02:00:00 15 6 Sur 11 Sur 0 -- -- 85
2020-06-15 01:00:00 15.8 6 Sur 13 Sur 0 -- -- 82
2020-06-15 00:00:00 16.5 5 Sur 10 Sur 0 -- -- 77
2020-06-14 23:00:00 17.1 4 Sur 13 Noroeste 0 -- -- 71
2020-06-14 22:00:00 17.7 8 Noroeste 14 Noroeste 0 -- -- 64
2020-06-14 21:00:00 18.9 4 Noroeste 17 Noroeste 0 -- -- 62
2020-06-14 20:00:00 20.6 12 Noroeste 17 Noroeste 0 -- -- 63
2020-06-14 19:00:00 21.4 11 Noroeste 19 Noroeste 0 -- -- 63
2020-06-14 18:00:00 21.5 13 Noroeste 20 Noroeste 0 -- -- 62
2020-06-14 17:00:00 22.7 8 Noroeste 13 Noroeste 0 -- -- 64
2020-06-14 16:00:00 22 6 Noroeste 12 Norte 0 -- -- 66
2020-06-14 15:00:00 21.7 5 Norte 14 Norte 0 -- -- 67
2020-06-14 14:00:00 20 11 Norte 17 Norte 0 -- -- 70
2020-06-14 13:00:00 19.8 15 Nordeste 21 Nordeste 0 -- -- 71
2020-06-14 12:00:00 19.7 16 Nordeste 21 Norte 0 -- -- 68
2020-06-14 11:00:00 19.3 12 Nordeste 19 Nordeste 0 -- -- 71
2020-06-14 10:00:00 18.6 3 Este 14 Nordeste 0 -- -- 78
2020-06-14 09:00:00 15.3 8 Sur 15 Sur 0 -- -- 95
2020-06-14 08:00:00 13.3 11 Sur 15 Sur 0 -- -- 95
2020-06-14 07:00:00 13.1 10 Sur 14 Sur 0 -- -- 95
2020-06-14 06:00:00 13.7 8 Sur 13 Sur 0 -- -- 94
2020-06-14 05:00:00 14.2 6 Sur 11 Sur 0 -- -- 92
2020-06-14 04:00:00 14.8 6 Sur 12 Sur 0 -- -- 92
2020-06-14 03:00:00 15 6 Sur 12 Sur 0 -- -- 91
2020-06-14 02:00:00 15.1 7 Sur 12 Sur 0 -- -- 91
2020-06-14 01:00:00 15.3 7 Sur 12 Sur 0 -- -- 91
2020-06-14 00:00:00 15.3 7 Sur 12 Sur 0 -- -- 88
2020-06-13 23:00:00 15.8 5 Sur 13 Sudeste 0 -- -- 84
2020-06-13 22:00:00 16.7 10 Sur 14 Sudeste 0 -- -- 75
2020-06-13 21:00:00 17.2 0 Calma 8 Noroeste 0 -- -- 71
2020-06-13 20:00:00 18.4 5 Noroeste 23 Noroeste 0 -- -- 70
2020-06-13 19:00:00 19 13 Noroeste 22 Noroeste 0 -- -- 67
2020-06-13 18:00:00 18.7 5 Nordeste 18 Norte 0 -- -- 65
2020-06-13 17:00:00 19.5 9 Norte 14 Norte 0.2 -- -- 65
2020-06-13 16:00:00 19.3 7 Nordeste 21 Nordeste 0 -- -- 62
2020-06-13 15:00:00 20.3 15 Nordeste 22 Nordeste 0 -- -- 61
2020-06-13 14:00:00 21.2 12 Nordeste 17 Nordeste 0 -- -- 60
2020-06-13 13:00:00 19.6 10 Nordeste 19 Norte 0 -- -- 70
2020-06-13 12:00:00 19.8 14 Noroeste 18 Noroeste 0 -- -- 70
2020-06-13 11:00:00 17.5 0 Calma 10 Sudoeste 0 -- -- 81
2020-06-13 10:00:00 14.8 5 Sur 15 Sur 0 -- -- 97
2020-06-13 09:00:00 14.2 7 Sur 12 Sur 0.3 -- -- 97
2020-06-13 08:00:00 13.3 6 Sur 13 Sur 0.1 -- -- 98
2020-06-13 07:00:00 12.8 7 Sur 14 Sur 0 -- -- 98
2020-06-13 06:00:00 12.7 4 Sur 15 Sur 0 -- -- 98
2020-06-13 05:00:00 12.7 9 Sur 13 Sudoeste 0 -- -- 98
2020-06-13 04:00:00 12.5 10 Sudoeste 12 Sudoeste 0 -- -- 98
2020-06-13 03:00:00 12.5 3 Oeste 15 Noroeste 0 -- -- 97
2020-06-13 02:00:00 13.3 6 Oeste 11 Oeste 0 -- -- 97
2020-06-13 01:00:00 12.7 7 Sur 24 Sur 0 -- -- 96
2020-06-13 00:00:00 13 8 Sur 15 Sur 0.2 -- -- 95
2020-06-12 23:00:00 13.2 7 Sur 15 Sur 0 -- -- 93
2020-06-12 22:00:00 13.6 7 Sur 22 Sur 0 -- -- 91
2020-06-12 21:00:00 14.2 12 Sur 19 Noroeste 0.5 -- -- 87
2020-06-12 20:00:00 14.6 8 Noroeste 30 Noroeste 0 -- -- 82
2020-06-12 19:00:00 14.6 13 Noroeste 58 Noroeste 0.5 -- -- 91
2020-06-12 18:00:00 16.2 36 Noroeste 53 Noroeste 0.1 -- -- 76
2020-06-12 17:00:00 17.2 19 Noroeste 36 Noroeste 0 -- -- 71
2020-06-12 16:00:00 16.7 21 Noroeste 33 Noroeste 0 -- -- 73
2020-06-12 15:00:00 17.6 14 Noroeste 23 Noroeste 0.2 -- -- 67
2020-06-12 14:00:00 19.3 11 Noroeste 44 Noroeste 0 -- -- 65
2020-06-12 13:00:00 18.4 34 Noroeste 48 Noroeste 0 -- -- 58
2020-06-12 12:00:00 19.5 15 Sur 43 Sudoeste 0 -- -- 52
2020-06-12 11:00:00 17.8 19 Sur 41 Sur 0 -- -- 57
2020-06-12 10:00:00 18.8 14 Sur 38 Sur 0 -- -- 57
2020-06-12 09:00:00 15.7 17 Sur 36 Sudoeste 0 -- -- 64
2020-06-12 08:00:00 14.8 21 Sur 62 Sudoeste 0 -- -- 64
2020-06-12 07:00:00 14.1 32 Sur 63 Sur 0 -- -- 64
2020-06-12 06:00:00 13.5 26 Sur 55 Sur 0 -- -- 68
2020-06-12 05:00:00 12.1 23 Sur 41 Sur 0 -- -- 82
2020-06-12 04:00:00 11 14 Sur 33 Sur 0 -- -- 94
2020-06-12 03:00:00 10.5 12 Sur 34 Sur 0.1 -- -- 97
2020-06-12 02:00:00 10.6 14 Sur 24 Sur 0 -- -- 98
2020-06-12 01:00:00 11 14 Sur 23 Sur 0 -- -- 97
2020-06-12 00:00:00 11.6 8 Sur 18 Sur 0.1 -- -- 96
2020-06-11 23:00:00 12.2 7 Sur 16 Sur 0.2 -- -- 95
2020-06-11 22:00:00 12.5 4 Sur 20 Noroeste 1.8 -- -- 91
2020-06-11 21:00:00 12.9 6 Sudoeste 15 Sudoeste 0.4 -- -- 91
2020-06-11 20:00:00 13.1 5 Sudoeste 12 Sur 0.1 -- -- 95
2020-06-11 19:00:00 14.1 3 Sur 17 Sudoeste 2 -- -- 95
2020-06-11 18:00:00 13.6 0 Calma 13 Sudoeste 0 -- -- 94
2020-06-11 17:00:00 13.9 5 Sur 15 Sudoeste 2.7 -- -- 94
2020-06-11 16:00:00 13.2 6 Sudoeste 66 Noroeste 2.1 -- -- 94
2020-06-11 15:00:00 14.7 33 Noroeste 60 Noroeste 6.4 -- -- 97
2020-06-11 14:00:00 17.1 37 Noroeste 72 Noroeste 0 -- -- 81
2020-06-11 13:00:00 20.4 10 Sur 27 Sur 0 -- -- 67
2020-06-11 12:00:00 18.3 12 Sur 24 Sur 0 -- -- 74
2020-06-11 11:00:00 16.8 0 Calma 9 Noroeste 0 -- -- 84
2020-06-11 10:00:00 16.3 3 Sur 14 Sur 0 -- -- 93
2020-06-11 09:00:00 15.3 7 Sur 13 Sur 0.1 -- -- 94
2020-06-11 08:00:00 14.9 6 Sur 10 Sudoeste 0 -- -- 94
2020-06-11 07:00:00 14.4 5 Sudoeste 10 Sudoeste 0 -- -- 94
2020-06-11 06:00:00 14.5 5 Sur 10 Sur 0 -- -- 94
2020-06-11 05:00:00 14.4 8 Sur 12 Sur 0 -- -- 94
2020-06-11 04:00:00 14.5 3 Sur 10 Sur 0 -- -- 94
2020-06-11 03:00:00 14.7 4 Sur 10 Sur 0 -- -- 94
2020-06-11 02:00:00 15 6 Sur 11 Sur 0 -- -- 94
2020-06-11 01:00:00 15.2 5 Sur 10 Sur 0.1 -- -- 93
2020-06-11 00:00:00 15.3 4 Sur 11 Sudeste 0 -- -- 90